sensor_id;sensor_type;location;lat;lon;timestamp;pressure;altitude;pressure_sealevel;temperature;humidity
51781;BME280;37844;57.126;24.288;2023-10-09T00:02:26;101331.38;;;8.26;92.02
51781;BME280;37844;57.126;24.288;2023-10-09T00:05:10;101337.47;;;8.30;93.80
51781;BME280;37844;57.126;24.288;2023-10-09T00:08:03;101332.81;;;8.44;92.56
51781;BME280;37844;57.126;24.288;2023-10-09T00:10:49;101329.19;;;8.39;90.42
51781;BME280;37844;57.126;24.288;2023-10-09T00:13:36;101327.66;;;8.44;90.86
51781;BME280;37844;57.126;24.288;2023-10-09T00:16:22;101338.81;;;8.44;93.08
51781;BME280;37844;57.126;24.288;2023-10-09T00:19:26;101332.16;;;8.24;97.72
51781;BME280;37844;57.126;24.288;2023-10-09T00:22:17;101329.28;;;8.15;98.50
51781;BME280;37844;57.126;24.288;2023-10-09T00:25:08;101332.66;;;8.14;99.34
51781;BME280;37844;57.126;24.288;2023-10-09T00:27:55;101319.66;;;8.09;98.90
51781;BME280;37844;57.126;24.288;2023-10-09T00:30:43;101335.09;;;8.09;100.00
51781;BME280;37844;57.126;24.288;2023-10-09T00:33:27;101351.84;;;7.98;100.00
51781;BME280;37844;57.126;24.288;2023-10-09T00:36:13;101344.03;;;7.95;100.00
51781;BME280;37844;57.126;24.288;2023-10-09T00:38:58;101328.34;;;7.85;100.00
51781;BME280;37844;57.126;24.288;2023-10-09T00:41:54;101319.66;;;7.82;100.00
51781;BME280;37844;57.126;24.288;2023-10-09T00:44:38;101313.28;;;7.71;100.00
51781;BME280;37844;57.126;24.288;2023-10-09T00:47:32;101321.13;;;7.75;100.00
51781;BME280;37844;57.126;24.288;2023-10-09T00:50:19;101319.66;;;7.82;100.00
51781;BME280;37844;57.126;24.288;2023-10-09T00:53:04;101319.59;;;7.80;100.00
51781;BME280;37844;57.126;24.288;2023-10-09T00:56:02;101319.72;;;7.83;100.00
51781;BME280;37844;57.126;24.288;2023-10-09T00:59:03;101316.31;;;7.84;100.00
51781;BME280;37844;57.126;24.288;2023-10-09T01:01:57;101304.19;;;7.80;100.00
51781;BME280;37844;57.126;24.288;2023-10-09T01:04:43;101311.00;;;7.78;100.00
51781;BME280;37844;57.126;24.288;2023-10-09T01:07:29;101294.91;;;7.58;100.00
51781;BME280;37844;57.126;24.288;2023-10-09T01:10:16;101287.94;;;7.54;100.00
51781;BME280;37844;57.126;24.288;2023-10-09T01:13:00;101297.41;;;7.57;100.00
51781;BME280;37844;57.126;24.288;2023-10-09T01:15:45;101300.72;;;7.53;100.00
51781;BME280;37844;57.126;24.288;2023-10-09T01:18:29;101299.84;;;7.52;100.00
51781;BME280;37844;57.126;24.288;2023-10-09T01:21:20;101309.09;;;7.73;100.00
51781;BME280;37844;57.126;24.288;2023-10-09T01:24:10;101297.72;;;7.66;100.00
51781;BME280;37844;57.126;24.288;2023-10-09T01:26:54;101297.19;;;7.75;100.00
51781;BME280;37844;57.126;24.288;2023-10-09T01:29:41;101288.53;;;7.71;100.00
51781;BME280;37844;57.126;24.288;2023-10-09T01:32:26;101298.44;;;7.88;100.00
51781;BME280;37844;57.126;24.288;2023-10-09T01:35:10;101290.09;;;7.93;100.00
51781;BME280;37844;57.126;24.288;2023-10-09T01:38:07;101290.38;;;8.02;100.00
51781;BME280;37844;57.126;24.288;2023-10-09T01:40:59;101278.91;;;7.91;100.00
51781;BME280;37844;57.126;24.288;2023-10-09T01:43:51;101297.69;;;8.17;100.00
51781;BME280;37844;57.126;24.288;2023-10-09T01:46:40;101293.78;;;8.28;100.00
51781;BME280;37844;57.126;24.288;2023-10-09T01:49:25;101296.53;;;8.07;100.00
51781;BME280;37844;57.126;24.288;2023-10-09T01:52:15;101289.38;;;8.24;100.00
51781;BME280;37844;57.126;24.288;2023-10-09T01:55:00;101292.22;;;8.34;100.00
51781;BME280;37844;57.126;24.288;2023-10-09T01:57:50;101290.47;;;8.33;100.00
51781;BME280;37844;57.126;24.288;2023-10-09T02:00:35;101287.88;;;8.33;100.00
51781;BME280;37844;57.126;24.288;2023-10-09T02:03:26;101293.72;;;8.27;100.00
51781;BME280;37844;57.126;24.288;2023-10-09T02:06:13;101279.09;;;8.24;100.00
51781;BME280;37844;57.126;24.288;2023-10-09T02:09:14;101267.16;;;8.26;100.00
51781;BME280;37844;57.126;24.288;2023-10-09T02:12:06;101275.81;;;8.28;100.00
51781;BME280;37844;57.126;24.288;2023-10-09T02:14:51;101277.63;;;8.33;100.00
51781;BME280;37844;57.126;24.288;2023-10-09T02:17:39;101280.81;;;8.25;100.00
51781;BME280;37844;57.126;24.288;2023-10-09T02:20:35;101282.03;;;7.82;100.00
51781;BME280;37844;57.126;24.288;2023-10-09T02:23:21;101271.34;;;7.96;100.00
51781;BME280;37844;57.126;24.288;2023-10-09T02:26:11;101296.63;;;8.11;100.00
51781;BME280;37844;57.126;24.288;2023-10-09T02:29:16;101312.41;;;7.96;100.00
51781;BME280;37844;57.126;24.288;2023-10-09T02:32:02;101307.59;;;7.79;100.00
51781;BME280;37844;57.126;24.288;2023-10-09T02:34:57;101293.44;;;7.65;100.00
51781;BME280;37844;57.126;24.288;2023-10-09T02:37:52;101275.16;;;7.56;100.00
51781;BME280;37844;57.126;24.288;2023-10-09T02:40:37;101294.28;;;7.64;100.00
51781;BME280;37844;57.126;24.288;2023-10-09T02:43:26;101294.53;;;7.72;100.00
51781;BME280;37844;57.126;24.288;2023-10-09T02:46:11;101298.09;;;7.77;100.00
51781;BME280;37844;57.126;24.288;2023-10-09T02:49:02;101290.31;;;7.74;100.00
51781;BME280;37844;57.126;24.288;2023-10-09T02:51:53;101291.13;;;7.73;100.00
51781;BME280;37844;57.126;24.288;2023-10-09T02:54:38;101281.78;;;7.75;100.00
51781;BME280;37844;57.126;24.288;2023-10-09T02:57:28;101291.28;;;7.77;100.00
51781;BME280;37844;57.126;24.288;2023-10-09T03:00:20;101299.97;;;7.57;100.00
51781;BME280;37844;57.126;24.288;2023-10-09T03:03:13;101287.31;;;7.36;100.00
51781;BME280;37844;57.126;24.288;2023-10-09T03:06:02;101278.56;;;7.31;100.00
51781;BME280;37844;57.126;24.288;2023-10-09T03:08:54;101281.25;;;7.34;100.00
51781;BME280;37844;57.126;24.288;2023-10-09T03:11:38;101273.72;;;7.38;100.00
51781;BME280;37844;57.126;24.288;2023-10-09T03:14:23;101257.19;;;7.30;100.00
51781;BME280;37844;57.126;24.288;2023-10-09T03:17:10;101252.38;;;7.39;100.00
51781;BME280;37844;57.126;24.288;2023-10-09T03:19:55;101260.28;;;7.46;100.00
51781;BME280;37844;57.126;24.288;2023-10-09T03:22:39;101249.19;;;7.47;100.00
51781;BME280;37844;57.126;24.288;2023-10-09T03:25:24;101270.66;;;7.49;100.00
51781;BME280;37844;57.126;24.288;2023-10-09T03:28:11;101293.81;;;7.52;100.00
51781;BME280;37844;57.126;24.288;2023-10-09T03:30:56;101292.00;;;7.23;100.00
51781;BME280;37844;57.126;24.288;2023-10-09T03:33:43;101301.56;;;7.04;100.00
51781;BME280;37844;57.126;24.288;2023-10-09T03:36:27;101286.16;;;7.04;100.00
51781;BME280;37844;57.126;24.288;2023-10-09T03:39:13;101273.34;;;7.04;100.00
51781;BME280;37844;57.126;24.288;2023-10-09T03:42:17;101237.66;;;6.86;100.00
51781;BME280;37844;57.126;24.288;2023-10-09T03:45:06;101242.69;;;6.58;100.00
51781;BME280;37844;57.126;24.288;2023-10-09T03:48:01;101244.97;;;6.51;100.00
51781;BME280;37844;57.126;24.288;2023-10-09T03:51:04;101264.31;;;6.67;100.00
51781;BME280;37844;57.126;24.288;2023-10-09T03:54:05;101265.16;;;6.66;100.00
51781;BME280;37844;57.126;24.288;2023-10-09T03:56:51;101256.59;;;6.65;100.00
51781;BME280;37844;57.126;24.288;2023-10-09T03:59:38;101257.63;;;6.70;100.00
51781;BME280;37844;57.126;24.288;2023-10-09T04:02:22;101217.63;;;6.74;100.00
51781;BME280;37844;57.126;24.288;2023-10-09T04:05:06;101215.13;;;6.75;100.00
51781;BME280;37844;57.126;24.288;2023-10-09T04:07:54;101203.47;;;6.84;100.00
51781;BME280;37844;57.126;24.288;2023-10-09T04:10:38;101196.91;;;6.92;100.00
51781;BME280;37844;57.126;24.288;2023-10-09T04:13:35;101214.63;;;6.86;100.00
51781;BME280;37844;57.126;24.288;2023-10-09T04:16:19;101238.59;;;6.88;100.00
51781;BME280;37844;57.126;24.288;2023-10-09T04:19:16;101226.88;;;6.94;100.00
51781;BME280;37844;57.126;24.288;2023-10-09T04:22:03;101235.16;;;7.11;100.00
51781;BME280;37844;57.126;24.288;2023-10-09T04:24:50;101226.59;;;7.11;100.00
51781;BME280;37844;57.126;24.288;2023-10-09T04:27:35;101212.09;;;7.11;100.00
51781;BME280;37844;57.126;24.288;2023-10-09T04:30:21;101205.59;;;7.21;100.00
51781;BME280;37844;57.126;24.288;2023-10-09T04:33:11;101200.88;;;7.08;100.00
51781;BME280;37844;57.126;24.288;2023-10-09T04:36:06;101208.41;;;7.03;100.00
51781;BME280;37844;57.126;24.288;2023-10-09T04:39:00;101214.06;;;7.18;100.00
51781;BME280;37844;57.126;24.288;2023-10-09T04:41:47;101210.13;;;7.04;100.00
51781;BME280;37844;57.126;24.288;2023-10-09T04:44:31;101213.63;;;7.06;100.00
51781;BME280;37844;57.126;24.288;2023-10-09T04:47:19;101222.41;;;7.13;100.00
51781;BME280;37844;57.126;24.288;2023-10-09T04:50:09;101227.88;;;6.98;100.00
51781;BME280;37844;57.126;24.288;2023-10-09T04:53:02;101203.78;;;6.93;100.00
51781;BME280;37844;57.126;24.288;2023-10-09T04:55:56;101197.66;;;6.89;100.00
51781;BME280;37844;57.126;24.288;2023-10-09T04:58:41;101208.16;;;6.95;100.00
51781;BME280;37844;57.126;24.288;2023-10-09T05:01:25;101214.63;;;7.10;100.00
51781;BME280;37844;57.126;24.288;2023-10-09T05:04:20;101200.44;;;7.19;100.00
51781;BME280;37844;57.126;24.288;2023-10-09T05:07:22;101193.00;;;7.27;100.00
51781;BME280;37844;57.126;24.288;2023-10-09T05:10:25;101199.41;;;7.14;100.00
51781;BME280;37844;57.126;24.288;2023-10-09T05:13:09;101200.13;;;6.86;100.00
51781;BME280;37844;57.126;24.288;2023-10-09T05:15:57;101185.22;;;6.76;100.00
51781;BME280;37844;57.126;24.288;2023-10-09T05:18:42;101180.78;;;6.70;100.00
51781;BME280;37844;57.126;24.288;2023-10-09T05:21:34;101187.25;;;6.61;100.00
51781;BME280;37844;57.126;24.288;2023-10-09T05:24:18;101185.66;;;6.64;100.00
51781;BME280;37844;57.126;24.288;2023-10-09T05:27:03;101189.47;;;6.74;100.00
51781;BME280;37844;57.126;24.288;2023-10-09T05:30:17;101192.16;;;7.03;100.00
51781;BME280;37844;57.126;24.288;2023-10-09T05:33:10;101197.34;;;7.30;100.00
51781;BME280;37844;57.126;24.288;2023-10-09T05:36:12;101203.66;;;7.39;100.00
51781;BME280;37844;57.126;24.288;2023-10-09T05:39:09;101174.66;;;7.42;100.00
51781;BME280;37844;57.126;24.288;2023-10-09T05:42:06;101203.63;;;7.65;100.00
51781;BME280;37844;57.126;24.288;2023-10-09T05:45:01;101209.84;;;7.72;100.00
51781;BME280;37844;57.126;24.288;2023-10-09T05:48:00;101211.09;;;7.84;100.00
51781;BME280;37844;57.126;24.288;2023-10-09T05:51:10;101198.94;;;7.79;100.00
51781;BME280;37844;57.126;24.288;2023-10-09T05:53:56;101191.47;;;7.86;100.00
51781;BME280;37844;57.126;24.288;2023-10-09T05:57:07;101195.34;;;8.01;100.00
51781;BME280;37844;57.126;24.288;2023-10-09T06:00:10;101162.88;;;8.03;100.00
51781;BME280;37844;57.126;24.288;2023-10-09T06:03:13;101184.28;;;8.03;100.00
51781;BME280;37844;57.126;24.288;2023-10-09T06:06:03;101166.53;;;8.11;100.00
51781;BME280;37844;57.126;24.288;2023-10-09T06:08:49;101175.78;;;8.04;100.00
51781;BME280;37844;57.126;24.288;2023-10-09T06:11:53;101170.44;;;7.70;100.00
51781;BME280;37844;57.126;24.288;2023-10-09T06:14:37;101172.47;;;7.53;100.00
51781;BME280;37844;57.126;24.288;2023-10-09T06:17:22;101181.34;;;7.37;100.00
51781;BME280;37844;57.126;24.288;2023-10-09T06:20:11;101187.78;;;7.51;100.00
51781;BME280;37844;57.126;24.288;2023-10-09T06:23:15;101180.41;;;7.60;100.00
51781;BME280;37844;57.126;24.288;2023-10-09T06:26:00;101190.28;;;7.50;100.00
51781;BME280;37844;57.126;24.288;2023-10-09T06:29:04;101188.78;;;7.29;100.00
51781;BME280;37844;57.126;24.288;2023-10-09T06:32:14;101183.56;;;7.26;100.00
51781;BME280;37844;57.126;24.288;2023-10-09T06:35:02;101178.84;;;7.38;100.00
51781;BME280;37844;57.126;24.288;2023-10-09T06:38:20;101180.50;;;7.38;100.00
51781;BME280;37844;57.126;24.288;2023-10-09T06:41:07;101180.22;;;7.29;100.00
51781;BME280;37844;57.126;24.288;2023-10-09T06:44:10;101176.06;;;7.32;100.00
51781;BME280;37844;57.126;24.288;2023-10-09T06:47:14;101175.53;;;7.42;100.00
51781;BME280;37844;57.126;24.288;2023-10-09T06:50:02;101169.06;;;7.54;100.00
51781;BME280;37844;57.126;24.288;2023-10-09T06:53:04;101180.59;;;7.67;100.00
51781;BME280;37844;57.126;24.288;2023-10-09T06:55:55;101183.72;;;7.58;100.00
51781;BME280;37844;57.126;24.288;2023-10-09T06:58:50;101169.34;;;7.63;100.00
51781;BME280;37844;57.126;24.288;2023-10-09T07:01:38;101177.63;;;7.81;100.00
51781;BME280;37844;57.126;24.288;2023-10-09T07:04:22;101172.38;;;7.77;100.00
51781;BME280;37844;57.126;24.288;2023-10-09T07:07:26;101178.69;;;7.61;100.00
51781;BME280;37844;57.126;24.288;2023-10-09T07:10:10;101176.97;;;7.60;100.00
51781;BME280;37844;57.126;24.288;2023-10-09T07:13:13;101176.56;;;7.75;100.00
51781;BME280;37844;57.126;24.288;2023-10-09T07:15:57;101177.88;;;7.89;100.00
51781;BME280;37844;57.126;24.288;2023-10-09T07:19:00;101176.03;;;8.14;100.00
51781;BME280;37844;57.126;24.288;2023-10-09T07:21:53;101177.50;;;8.34;100.00
51781;BME280;37844;57.126;24.288;2023-10-09T07:24:37;101165.59;;;8.66;100.00
51781;BME280;37844;57.126;24.288;2023-10-09T07:27:28;101174.38;;;8.75;100.00
51781;BME280;37844;57.126;24.288;2023-10-09T07:30:31;101169.69;;;8.91;100.00
51781;BME280;37844;57.126;24.288;2023-10-09T07:33:15;101163.00;;;9.68;100.00
51781;BME280;37844;57.126;24.288;2023-10-09T07:36:01;101166.59;;;10.12;100.00
51781;BME280;37844;57.126;24.288;2023-10-09T07:38:51;101162.91;;;10.85;100.00
51781;BME280;37844;57.126;24.288;2023-10-09T07:41:40;101165.53;;;11.90;100.00
51781;BME280;37844;57.126;24.288;2023-10-09T07:44:29;101171.06;;;12.19;100.00
51781;BME280;37844;57.126;24.288;2023-10-09T07:47:22;101175.00;;;11.37;100.00
51781;BME280;37844;57.126;24.288;2023-10-09T07:50:17;101164.59;;;10.84;100.00
51781;BME280;37844;57.126;24.288;2023-10-09T07:53:05;101174.06;;;10.41;100.00
51781;BME280;37844;57.126;24.288;2023-10-09T07:55:59;101172.78;;;10.21;100.00
51781;BME280;37844;57.126;24.288;2023-10-09T07:58:50;101177.28;;;9.91;100.00
51781;BME280;37844;57.126;24.288;2023-10-09T08:01:35;101164.06;;;9.76;100.00
51781;BME280;37844;57.126;24.288;2023-10-09T08:04:23;101157.25;;;9.80;100.00
51781;BME280;37844;57.126;24.288;2023-10-09T08:07:29;101172.47;;;9.69;100.00
51781;BME280;37844;57.126;24.288;2023-10-09T08:10:19;101196.84;;;8.50;100.00
51781;BME280;37844;57.126;24.288;2023-10-09T08:13:03;101203.56;;;7.63;100.00
51781;BME280;37844;57.126;24.288;2023-10-09T08:16:07;101195.25;;;7.18;100.00
51781;BME280;37844;57.126;24.288;2023-10-09T08:19:04;101189.63;;;7.04;100.00
51781;BME280;37844;57.126;24.288;2023-10-09T08:22:14;101199.72;;;6.99;100.00
51781;BME280;37844;57.126;24.288;2023-10-09T08:25:27;101186.28;;;6.81;100.00
51781;BME280;37844;57.126;24.288;2023-10-09T08:28:19;101186.13;;;7.02;100.00
51781;BME280;37844;57.126;24.288;2023-10-09T08:31:22;101202.78;;;7.39;100.00
51781;BME280;37844;57.126;24.288;2023-10-09T08:34:18;101218.41;;;7.72;100.00
51781;BME280;37844;57.126;24.288;2023-10-09T08:37:09;101212.84;;;7.85;100.00
51781;BME280;37844;57.126;24.288;2023-10-09T08:39:56;101208.38;;;7.80;100.00
51781;BME280;37844;57.126;24.288;2023-10-09T08:42:53;101197.09;;;7.75;100.00
51781;BME280;37844;57.126;24.288;2023-10-09T08:45:56;101193.56;;;7.71;100.00
51781;BME280;37844;57.126;24.288;2023-10-09T08:48:47;101211.34;;;7.65;100.00
51781;BME280;37844;57.126;24.288;2023-10-09T08:51:32;101191.59;;;7.62;100.00
51781;BME280;37844;57.126;24.288;2023-10-09T08:54:19;101214.94;;;7.44;100.00
51781;BME280;37844;57.126;24.288;2023-10-09T08:57:03;101206.88;;;6.84;100.00
51781;BME280;37844;57.126;24.288;2023-10-09T08:59:48;101214.84;;;6.45;100.00
51781;BME280;37844;57.126;24.288;2023-10-09T09:02:32;101229.09;;;6.61;100.00
51781;BME280;37844;57.126;24.288;2023-10-09T09:05:21;101207.13;;;6.44;100.00
51781;BME280;37844;57.126;24.288;2023-10-09T09:08:24;101189.34;;;6.24;100.00
51781;BME280;37844;57.126;24.288;2023-10-09T09:11:11;101179.81;;;6.20;100.00
51781;BME280;37844;57.126;24.288;2023-10-09T09:16:48;101200.16;;;6.64;100.00
51781;BME280;37844;57.126;24.288;2023-10-09T09:19:33;101201.97;;;6.90;100.00
51781;BME280;37844;57.126;24.288;2023-10-09T09:22:21;101208.81;;;7.15;100.00
51781;BME280;37844;57.126;24.288;2023-10-09T09:25:05;101197.44;;;7.33;100.00
51781;BME280;37844;57.126;24.288;2023-10-09T09:27:53;101198.88;;;7.50;100.00
51781;BME280;37844;57.126;24.288;2023-10-09T09:30:40;101175.38;;;7.38;100.00
51781;BME280;37844;57.126;24.288;2023-10-09T09:33:26;101200.31;;;7.42;100.00
51781;BME280;37844;57.126;24.288;2023-10-09T09:36:26;101198.06;;;7.26;100.00
51781;BME280;37844;57.126;24.288;2023-10-09T09:39:12;101195.19;;;7.42;100.00
51781;BME280;37844;57.126;24.288;2023-10-09T09:42:03;101142.59;;;7.55;100.00
51781;BME280;37844;57.126;24.288;2023-10-09T09:44:51;101156.59;;;7.64;100.00
51781;BME280;37844;57.126;24.288;2023-10-09T09:47:36;101148.97;;;7.68;100.00
51781;BME280;37844;57.126;24.288;2023-10-09T09:50:22;101171.34;;;7.72;100.00
51781;BME280;37844;57.126;24.288;2023-10-09T09:53:13;101179.84;;;7.71;100.00
51781;BME280;37844;57.126;24.288;2023-10-09T09:56:03;101162.66;;;7.68;100.00
51781;BME280;37844;57.126;24.288;2023-10-09T09:58:50;101154.53;;;7.81;100.00
51781;BME280;37844;57.126;24.288;2023-10-09T10:01:38;101148.72;;;7.87;100.00
51781;BME280;37844;57.126;24.288;2023-10-09T10:04:29;101157.41;;;7.92;100.00
51781;BME280;37844;57.126;24.288;2023-10-09T10:07:20;101149.28;;;8.05;100.00
51781;BME280;37844;57.126;24.288;2023-10-09T10:10:36;101148.06;;;8.23;100.00
51781;BME280;37844;57.126;24.288;2023-10-09T10:16:27;101155.19;;;8.62;100.00
51781;BME280;37844;57.126;24.288;2023-10-09T10:19:18;101150.44;;;8.76;100.00
51781;BME280;37844;57.126;24.288;2023-10-09T10:22:25;101150.09;;;8.95;100.00
51781;BME280;37844;57.126;24.288;2023-10-09T10:28:26;101163.31;;;7.61;100.00
51781;BME280;37844;57.126;24.288;2023-10-09T10:35:05;101152.72;;;7.50;100.00
51781;BME280;37844;57.126;24.288;2023-10-09T10:37:50;101162.66;;;7.68;100.00
51781;BME280;37844;57.126;24.288;2023-10-09T10:40:35;101156.97;;;7.77;100.00
51781;BME280;37844;57.126;24.288;2023-10-09T10:43:23;101151.69;;;7.72;100.00
51781;BME280;37844;57.126;24.288;2023-10-09T10:46:30;101145.66;;;7.99;100.00
51781;BME280;37844;57.126;24.288;2023-10-09T10:49:18;101152.47;;;8.27;100.00
51781;BME280;37844;57.126;24.288;2023-10-09T10:52:06;101144.91;;;8.32;100.00
51781;BME280;37844;57.126;24.288;2023-10-09T10:55:12;101150.09;;;8.35;100.00
51781;BME280;37844;57.126;24.288;2023-10-09T10:58:22;101142.28;;;8.30;100.00
51781;BME280;37844;57.126;24.288;2023-10-09T11:01:19;101146.97;;;8.15;100.00
51781;BME280;37844;57.126;24.288;2023-10-09T11:04:12;101136.06;;;8.22;100.00
51781;BME280;37844;57.126;24.288;2023-10-09T11:07:01;101140.19;;;8.17;100.00
51781;BME280;37844;57.126;24.288;2023-10-09T11:09:58;101131.00;;;8.25;100.00
51781;BME280;37844;57.126;24.288;2023-10-09T11:12:48;101127.03;;;8.36;100.00
51781;BME280;37844;57.126;24.288;2023-10-09T11:15:37;101125.09;;;8.58;100.00
51781;BME280;37844;57.126;24.288;2023-10-09T11:18:28;101120.94;;;8.63;100.00
51781;BME280;37844;57.126;24.288;2023-10-09T11:21:15;101125.41;;;8.68;100.00
51781;BME280;37844;57.126;24.288;2023-10-09T11:24:00;101129.09;;;8.78;100.00
51781;BME280;37844;57.126;24.288;2023-10-09T11:27:05;101118.50;;;8.67;100.00
51781;BME280;37844;57.126;24.288;2023-10-09T11:29:51;101121.56;;;8.54;100.00
51781;BME280;37844;57.126;24.288;2023-10-09T11:32:36;101127.88;;;8.65;100.00
51781;BME280;37844;57.126;24.288;2023-10-09T11:35:21;101123.97;;;8.80;100.00
51781;BME280;37844;57.126;24.288;2023-10-09T11:38:12;101115.88;;;8.99;100.00
51781;BME280;37844;57.126;24.288;2023-10-09T11:41:15;101112.63;;;9.05;100.00
51781;BME280;37844;57.126;24.288;2023-10-09T11:44:08;101101.66;;;9.12;100.00
51781;BME280;37844;57.126;24.288;2023-10-09T11:47:03;101120.81;;;9.25;100.00
51781;BME280;37844;57.126;24.288;2023-10-09T11:50:02;101126.72;;;8.86;100.00
51781;BME280;37844;57.126;24.288;2023-10-09T11:52:59;101125.75;;;8.82;100.00
51781;BME280;37844;57.126;24.288;2023-10-09T11:55:53;101119.78;;;8.52;100.00
51781;BME280;37844;57.126;24.288;2023-10-09T11:58:37;101128.31;;;7.92;100.00
51781;BME280;37844;57.126;24.288;2023-10-09T12:01:24;101124.38;;;8.03;100.00
51781;BME280;37844;57.126;24.288;2023-10-09T12:04:10;101132.13;;;8.04;100.00
51781;BME280;37844;57.126;24.288;2023-10-09T12:06:56;101135.09;;;7.90;100.00
51781;BME280;37844;57.126;24.288;2023-10-09T12:09:54;101132.84;;;7.72;100.00
51781;BME280;37844;57.126;24.288;2023-10-09T12:12:40;101129.38;;;7.70;100.00
51781;BME280;37844;57.126;24.288;2023-10-09T12:15:31;101139.56;;;7.67;100.00
51781;BME280;37844;57.126;24.288;2023-10-09T12:18:21;101134.78;;;7.79;100.00
51781;BME280;37844;57.126;24.288;2023-10-09T12:21:08;101139.00;;;8.05;100.00
51781;BME280;37844;57.126;24.288;2023-10-09T12:23:59;101141.31;;;8.26;100.00
51781;BME280;37844;57.126;24.288;2023-10-09T12:26:43;101133.09;;;8.38;100.00
51781;BME280;37844;57.126;24.288;2023-10-09T12:29:29;101135.13;;;8.48;100.00
51781;BME280;37844;57.126;24.288;2023-10-09T12:32:16;101144.50;;;8.78;100.00
51781;BME280;37844;57.126;24.288;2023-10-09T12:35:05;101142.28;;;8.92;100.00
51781;BME280;37844;57.126;24.288;2023-10-09T12:38:01;101140.63;;;8.94;100.00
51781;BME280;37844;57.126;24.288;2023-10-09T12:40:45;101129.22;;;8.84;100.00
51781;BME280;37844;57.126;24.288;2023-10-09T12:43:36;101138.34;;;9.05;100.00
51781;BME280;37844;57.126;24.288;2023-10-09T12:46:22;101125.16;;;9.27;100.00
51781;BME280;37844;57.126;24.288;2023-10-09T12:49:16;101126.34;;;9.40;100.00
51781;BME280;37844;57.126;24.288;2023-10-09T12:52:00;101133.53;;;9.55;100.00
51781;BME280;37844;57.126;24.288;2023-10-09T12:54:44;101119.72;;;9.50;100.00
51781;BME280;37844;57.126;24.288;2023-10-09T12:57:30;101125.03;;;9.58;100.00
51781;BME280;37844;57.126;24.288;2023-10-09T13:00:14;101128.03;;;9.76;100.00
51781;BME280;37844;57.126;24.288;2023-10-09T13:03:10;101122.28;;;9.88;100.00
51781;BME280;37844;57.126;24.288;2023-10-09T13:06:00;101107.75;;;9.91;100.00
51781;BME280;37844;57.126;24.288;2023-10-09T13:08:47;101123.50;;;10.04;100.00
51781;BME280;37844;57.126;24.288;2023-10-09T13:11:31;101105.59;;;10.11;100.00
51781;BME280;37844;57.126;24.288;2023-10-09T13:14:16;101101.47;;;10.19;100.00
51781;BME280;37844;57.126;24.288;2023-10-09T13:17:06;101108.13;;;10.51;100.00
51781;BME280;37844;57.126;24.288;2023-10-09T13:19:54;101080.03;;;10.63;100.00
51781;BME280;37844;57.126;24.288;2023-10-09T13:22:40;101089.50;;;10.66;100.00
51781;BME280;37844;57.126;24.288;2023-10-09T13:25:27;101098.06;;;10.63;100.00
51781;BME280;37844;57.126;24.288;2023-10-09T13:28:23;101085.91;;;10.57;100.00
51781;BME280;37844;57.126;24.288;2023-10-09T13:31:07;101085.47;;;10.34;100.00
51781;BME280;37844;57.126;24.288;2023-10-09T13:33:55;101085.41;;;10.30;100.00
51781;BME280;37844;57.126;24.288;2023-10-09T13:36:39;101087.09;;;10.29;100.00
51781;BME280;37844;57.126;24.288;2023-10-09T13:39:23;101085.28;;;10.27;100.00
51781;BME280;37844;57.126;24.288;2023-10-09T13:42:10;101086.00;;;10.19;100.00
51781;BME280;37844;57.126;24.288;2023-10-09T13:44:55;101081.56;;;10.11;100.00
51781;BME280;37844;57.126;24.288;2023-10-09T13:47:39;101085.72;;;10.04;100.00
51781;BME280;37844;57.126;24.288;2023-10-09T13:50:24;101078.09;;;10.09;100.00
51781;BME280;37844;57.126;24.288;2023-10-09T13:53:12;101066.97;;;10.13;100.00
51781;BME280;37844;57.126;24.288;2023-10-09T13:55:58;101066.94;;;10.10;100.00
51781;BME280;37844;57.126;24.288;2023-10-09T13:58:43;101068.75;;;10.15;100.00
51781;BME280;37844;57.126;24.288;2023-10-09T14:01:27;101077.69;;;10.30;100.00
51781;BME280;37844;57.126;24.288;2023-10-09T14:04:11;101066.44;;;10.28;100.00
51781;BME280;37844;57.126;24.288;2023-10-09T14:07:01;101075.56;;;10.12;100.00
51781;BME280;37844;57.126;24.288;2023-10-09T14:09:49;101072.75;;;10.00;100.00
51781;BME280;37844;57.126;24.288;2023-10-09T14:12:39;101078.66;;;9.95;100.00
51781;BME280;37844;57.126;24.288;2023-10-09T14:15:26;101073.47;;;9.92;100.00
51781;BME280;37844;57.126;24.288;2023-10-09T14:18:10;101053.53;;;9.84;100.00
51781;BME280;37844;57.126;24.288;2023-10-09T14:20:55;101064.47;;;9.73;97.49
51781;BME280;37844;57.126;24.288;2023-10-09T14:23:40;101067.94;;;9.75;97.50
51781;BME280;37844;57.126;24.288;2023-10-09T14:26:26;101078.06;;;9.68;97.90
51781;BME280;37844;57.126;24.288;2023-10-09T14:29:11;101086.41;;;9.58;95.97
51781;BME280;37844;57.126;24.288;2023-10-09T14:32:00;101052.75;;;9.48;98.91
51781;BME280;37844;57.126;24.288;2023-10-09T14:34:44;101088.84;;;9.51;100.00
51781;BME280;37844;57.126;24.288;2023-10-09T14:37:35;101083.56;;;9.45;100.00
51781;BME280;37844;57.126;24.288;2023-10-09T14:40:19;101090.09;;;9.31;100.00
51781;BME280;37844;57.126;24.288;2023-10-09T14:43:13;101104.69;;;9.32;100.00
51781;BME280;37844;57.126;24.288;2023-10-09T14:46:04;101112.28;;;9.26;100.00
51781;BME280;37844;57.126;24.288;2023-10-09T14:48:54;101122.75;;;8.99;100.00
51781;BME280;37844;57.126;24.288;2023-10-09T14:51:39;101166.63;;;9.05;100.00
51781;BME280;37844;57.126;24.288;2023-10-09T14:54:23;101166.81;;;9.12;100.00